sensor_id;sensor_type;location;lat;lon;timestamp;P1;durP1;ratioP1;P2;durP2;ratioP2
12878;SDS011;20617;49.476;10.986;2023-02-26T00:01:56;4.07;;;1.48;;
12878;SDS011;20617;49.476;10.986;2023-02-26T00:04:04;4.75;;;1.75;;
12878;SDS011;20617;49.476;10.986;2023-02-26T00:06:10;4.40;;;1.40;;
12878;SDS011;20617;49.476;10.986;2023-02-26T00:08:15;4.07;;;1.60;;
12878;SDS011;20617;49.476;10.986;2023-02-26T00:10:20;5.45;;;1.90;;
12878;SDS011;20617;49.476;10.986;2023-02-26T00:12:25;2.60;;;1.65;;
12878;SDS011;20617;49.476;10.986;2023-02-26T00:14:31;3.90;;;1.70;;
12878;SDS011;20617;49.476;10.986;2023-02-26T00:16:36;3.88;;;1.48;;
12878;SDS011;20617;49.476;10.986;2023-02-26T00:18:42;3.80;;;1.73;;
12878;SDS011;20617;49.476;10.986;2023-02-26T00:20:50;4.07;;;1.90;;
12878;SDS011;20617;49.476;10.986;2023-02-26T00:22:56;6.22;;;1.55;;
12878;SDS011;20617;49.476;10.986;2023-02-26T00:25:01;3.38;;;1.42;;
12878;SDS011;20617;49.476;10.986;2023-02-26T00:27:06;5.65;;;1.88;;
12878;SDS011;20617;49.476;10.986;2023-02-26T00:29:11;2.95;;;1.70;;
12878;SDS011;20617;49.476;10.986;2023-02-26T00:31:17;4.50;;;2.03;;
12878;SDS011;20617;49.476;10.986;2023-02-26T00:33:25;5.43;;;2.00;;
12878;SDS011;20617;49.476;10.986;2023-02-26T00:35:32;4.72;;;1.70;;
12878;SDS011;20617;49.476;10.986;2023-02-26T00:37:47;3.80;;;1.52;;
12878;SDS011;20617;49.476;10.986;2023-02-26T00:40:13;5.57;;;1.83;;
12878;SDS011;20617;49.476;10.986;2023-02-26T00:42:22;2.97;;;1.88;;
12878;SDS011;20617;49.476;10.986;2023-02-26T00:44:27;6.97;;;2.00;;
12878;SDS011;20617;49.476;10.986;2023-02-26T00:46:35;5.13;;;2.08;;
12878;SDS011;20617;49.476;10.986;2023-02-26T00:48:50;3.25;;;1.80;;
12878;SDS011;20617;49.476;10.986;2023-02-26T00:51:10;5.05;;;2.13;;
12878;SDS011;20617;49.476;10.986;2023-02-26T00:53:26;6.00;;;1.80;;
12878;SDS011;20617;49.476;10.986;2023-02-26T00:55:35;5.70;;;1.65;;
12878;SDS011;20617;49.476;10.986;2023-02-26T00:57:40;5.13;;;2.20;;
12878;SDS011;20617;49.476;10.986;2023-02-26T00:59:44;6.50;;;1.75;;
12878;SDS011;20617;49.476;10.986;2023-02-26T01:01:50;6.10;;;1.83;;
12878;SDS011;20617;49.476;10.986;2023-02-26T01:03:56;4.05;;;1.83;;
12878;SDS011;20617;49.476;10.986;2023-02-26T01:06:01;4.95;;;2.00;;
12878;SDS011;20617;49.476;10.986;2023-02-26T01:08:08;6.10;;;1.95;;
12878;SDS011;20617;49.476;10.986;2023-02-26T01:10:21;4.18;;;1.55;;
12878;SDS011;20617;49.476;10.986;2023-02-26T01:12:27;3.90;;;1.75;;
12878;SDS011;20617;49.476;10.986;2023-02-26T01:14:32;4.97;;;2.08;;
12878;SDS011;20617;49.476;10.986;2023-02-26T01:16:41;7.82;;;2.28;;
12878;SDS011;20617;49.476;10.986;2023-02-26T01:18:53;4.50;;;1.70;;
12878;SDS011;20617;49.476;10.986;2023-02-26T01:21:04;3.88;;;1.52;;
12878;SDS011;20617;49.476;10.986;2023-02-26T01:23:17;5.57;;;2.08;;
12878;SDS011;20617;49.476;10.986;2023-02-26T01:25:34;4.25;;;1.67;;
12878;SDS011;20617;49.476;10.986;2023-02-26T01:27:43;6.35;;;1.88;;
12878;SDS011;20617;49.476;10.986;2023-02-26T01:29:48;4.88;;;1.73;;
12878;SDS011;20617;49.476;10.986;2023-02-26T01:31:56;2.17;;;1.30;;
12878;SDS011;20617;49.476;10.986;2023-02-26T01:34:10;6.13;;;1.65;;
12878;SDS011;20617;49.476;10.986;2023-02-26T01:36:23;4.32;;;1.55;;
12878;SDS011;20617;49.476;10.986;2023-02-26T01:38:33;3.40;;;1.70;;
12878;SDS011;20617;49.476;10.986;2023-02-26T01:43:22;4.80;;;1.52;;
12878;SDS011;20617;49.476;10.986;2023-02-26T01:45:36;4.38;;;1.50;;
12878;SDS011;20617;49.476;10.986;2023-02-26T01:47:59;3.38;;;1.67;;
12878;SDS011;20617;49.476;10.986;2023-02-26T01:50:10;5.15;;;1.75;;
12878;SDS011;20617;49.476;10.986;2023-02-26T01:55:10;3.60;;;1.55;;
12878;SDS011;20617;49.476;10.986;2023-02-26T01:59:25;4.10;;;1.85;;
12878;SDS011;20617;49.476;10.986;2023-02-26T02:01:30;4.28;;;1.90;;
12878;SDS011;20617;49.476;10.986;2023-02-26T02:03:36;4.75;;;1.80;;
12878;SDS011;20617;49.476;10.986;2023-02-26T02:05:44;2.47;;;1.50;;
12878;SDS011;20617;49.476;10.986;2023-02-26T02:07:54;3.28;;;1.75;;
12878;SDS011;20617;49.476;10.986;2023-02-26T02:09:59;5.45;;;1.77;;
12878;SDS011;20617;49.476;10.986;2023-02-26T02:12:10;5.65;;;2.00;;
12878;SDS011;20617;49.476;10.986;2023-02-26T02:14:29;4.85;;;1.35;;
12878;SDS011;20617;49.476;10.986;2023-02-26T02:16:45;3.75;;;1.60;;
12878;SDS011;20617;49.476;10.986;2023-02-26T02:18:58;3.78;;;1.58;;
12878;SDS011;20617;49.476;10.986;2023-02-26T02:24:05;2.75;;;1.20;;
12878;SDS011;20617;49.476;10.986;2023-02-26T02:26:33;10.20;;;2.42;;
12878;SDS011;20617;49.476;10.986;2023-02-26T02:28:57;4.10;;;1.13;;
12878;SDS011;20617;49.476;10.986;2023-02-26T02:31:19;4.68;;;1.30;;
12878;SDS011;20617;49.476;10.986;2023-02-26T02:33:30;3.42;;;1.15;;
12878;SDS011;20617;49.476;10.986;2023-02-26T02:35:40;3.00;;;1.10;;
12878;SDS011;20617;49.476;10.986;2023-02-26T02:37:52;6.18;;;1.40;;
12878;SDS011;20617;49.476;10.986;2023-02-26T02:40:01;5.57;;;1.30;;
12878;SDS011;20617;49.476;10.986;2023-02-26T02:42:16;3.35;;;0.98;;
12878;SDS011;20617;49.476;10.986;2023-02-26T02:44:25;5.75;;;1.48;;
12878;SDS011;20617;49.476;10.986;2023-02-26T02:46:36;3.25;;;1.40;;
12878;SDS011;20617;49.476;10.986;2023-02-26T02:48:45;3.15;;;1.23;;
12878;SDS011;20617;49.476;10.986;2023-02-26T02:50:53;2.47;;;1.13;;
12878;SDS011;20617;49.476;10.986;2023-02-26T02:53:01;2.75;;;1.10;;
12878;SDS011;20617;49.476;10.986;2023-02-26T02:55:14;4.40;;;1.52;;
12878;SDS011;20617;49.476;10.986;2023-02-26T02:57:24;3.45;;;1.17;;
12878;SDS011;20617;49.476;10.986;2023-02-26T02:59:34;6.18;;;1.75;;
12878;SDS011;20617;49.476;10.986;2023-02-26T03:01:45;3.28;;;1.55;;
12878;SDS011;20617;49.476;10.986;2023-02-26T03:03:57;3.45;;;1.20;;
12878;SDS011;20617;49.476;10.986;2023-02-26T03:06:05;1.42;;;1.00;;
12878;SDS011;20617;49.476;10.986;2023-02-26T03:08:11;4.22;;;1.27;;
12878;SDS011;20617;49.476;10.986;2023-02-26T03:10:20;3.63;;;0.95;;
12878;SDS011;20617;49.476;10.986;2023-02-26T03:12:25;3.15;;;1.10;;
12878;SDS011;20617;49.476;10.986;2023-02-26T03:14:30;3.38;;;1.48;;
12878;SDS011;20617;49.476;10.986;2023-02-26T03:16:47;4.53;;;1.30;;
12878;SDS011;20617;49.476;10.986;2023-02-26T03:19:02;5.05;;;1.13;;
12878;SDS011;20617;49.476;10.986;2023-02-26T03:21:19;4.55;;;1.30;;
12878;SDS011;20617;49.476;10.986;2023-02-26T03:23:33;3.45;;;1.42;;
12878;SDS011;20617;49.476;10.986;2023-02-26T03:25:44;5.13;;;1.10;;
12878;SDS011;20617;49.476;10.986;2023-02-26T03:27:56;3.92;;;1.38;;
12878;SDS011;20617;49.476;10.986;2023-02-26T03:30:13;5.13;;;1.48;;
12878;SDS011;20617;49.476;10.986;2023-02-26T03:32:26;2.08;;;0.90;;
12878;SDS011;20617;49.476;10.986;2023-02-26T03:34:36;2.90;;;1.20;;
12878;SDS011;20617;49.476;10.986;2023-02-26T03:36:47;3.63;;;1.23;;
12878;SDS011;20617;49.476;10.986;2023-02-26T03:39:04;4.00;;;1.52;;
12878;SDS011;20617;49.476;10.986;2023-02-26T03:41:14;8.65;;;1.40;;
12878;SDS011;20617;49.476;10.986;2023-02-26T03:43:27;5.07;;;1.45;;
12878;SDS011;20617;49.476;10.986;2023-02-26T03:45:40;5.18;;;1.13;;
12878;SDS011;20617;49.476;10.986;2023-02-26T03:47:51;3.80;;;1.10;;
12878;SDS011;20617;49.476;10.986;2023-02-26T03:50:01;4.97;;;1.10;;
12878;SDS011;20617;49.476;10.986;2023-02-26T03:52:20;3.00;;;1.30;;
12878;SDS011;20617;49.476;10.986;2023-02-26T03:54:38;3.78;;;1.38;;
12878;SDS011;20617;49.476;10.986;2023-02-26T03:57:18;3.47;;;1.30;;
12878;SDS011;20617;49.476;10.986;2023-02-26T03:59:42;3.83;;;1.70;;
12878;SDS011;20617;49.476;10.986;2023-02-26T04:02:03;3.95;;;1.40;;
12878;SDS011;20617;49.476;10.986;2023-02-26T04:04:18;3.88;;;1.40;;
12878;SDS011;20617;49.476;10.986;2023-02-26T04:06:28;4.60;;;1.75;;
12878;SDS011;20617;49.476;10.986;2023-02-26T04:08:35;14.23;;;2.17;;
12878;SDS011;20617;49.476;10.986;2023-02-26T04:12:47;5.13;;;1.27;;
12878;SDS011;20617;49.476;10.986;2023-02-26T04:14:52;4.20;;;1.00;;
12878;SDS011;20617;49.476;10.986;2023-02-26T04:16:59;3.63;;;1.55;;
12878;SDS011;20617;49.476;10.986;2023-02-26T04:19:04;2.30;;;1.00;;
12878;SDS011;20617;49.476;10.986;2023-02-26T04:21:13;4.95;;;1.17;;
12878;SDS011;20617;49.476;10.986;2023-02-26T04:23:19;3.97;;;0.90;;
12878;SDS011;20617;49.476;10.986;2023-02-26T04:25:24;3.13;;;1.50;;
12878;SDS011;20617;49.476;10.986;2023-02-26T04:29:34;10.20;;;1.48;;
12878;SDS011;20617;49.476;10.986;2023-02-26T04:31:40;2.40;;;1.00;;
12878;SDS011;20617;49.476;10.986;2023-02-26T04:33:45;2.25;;;1.15;;
12878;SDS011;20617;49.476;10.986;2023-02-26T04:35:50;1.65;;;0.98;;
12878;SDS011;20617;49.476;10.986;2023-02-26T04:37:58;2.83;;;0.98;;
12878;SDS011;20617;49.476;10.986;2023-02-26T04:40:04;2.10;;;0.95;;
12878;SDS011;20617;49.476;10.986;2023-02-26T04:42:10;5.55;;;1.40;;
12878;SDS011;20617;49.476;10.986;2023-02-26T04:44:15;2.53;;;1.13;;
12878;SDS011;20617;49.476;10.986;2023-02-26T04:46:20;3.40;;;1.00;;
12878;SDS011;20617;49.476;10.986;2023-02-26T04:48:26;3.35;;;1.20;;
12878;SDS011;20617;49.476;10.986;2023-02-26T04:50:31;3.10;;;1.08;;
12878;SDS011;20617;49.476;10.986;2023-02-26T04:52:36;2.45;;;1.02;;
12878;SDS011;20617;49.476;10.986;2023-02-26T04:54:44;4.88;;;0.90;;
12878;SDS011;20617;49.476;10.986;2023-02-26T04:56:49;1.95;;;0.80;;
12878;SDS011;20617;49.476;10.986;2023-02-26T04:58:54;4.25;;;1.13;;
12878;SDS011;20617;49.476;10.986;2023-02-26T05:01:02;3.38;;;1.02;;
12878;SDS011;20617;49.476;10.986;2023-02-26T05:05:15;4.80;;;1.23;;
12878;SDS011;20617;49.476;10.986;2023-02-26T05:07:20;6.03;;;1.05;;
12878;SDS011;20617;49.476;10.986;2023-02-26T05:11:32;2.67;;;1.30;;
12878;SDS011;20617;49.476;10.986;2023-02-26T05:13:39;3.88;;;1.23;;
12878;SDS011;20617;49.476;10.986;2023-02-26T05:15:44;2.60;;;1.05;;
12878;SDS011;20617;49.476;10.986;2023-02-26T05:17:49;2.70;;;1.10;;
12878;SDS011;20617;49.476;10.986;2023-02-26T05:19:54;3.35;;;1.10;;
12878;SDS011;20617;49.476;10.986;2023-02-26T05:22:00;4.55;;;1.10;;
12878;SDS011;20617;49.476;10.986;2023-02-26T05:24:05;3.95;;;1.20;;
12878;SDS011;20617;49.476;10.986;2023-02-26T05:26:10;6.72;;;1.20;;
12878;SDS011;20617;49.476;10.986;2023-02-26T05:28:18;3.65;;;1.48;;
12878;SDS011;20617;49.476;10.986;2023-02-26T05:30:23;2.92;;;1.17;;
12878;SDS011;20617;49.476;10.986;2023-02-26T05:34:33;4.55;;;1.33;;
12878;SDS011;20617;49.476;10.986;2023-02-26T05:36:38;2.92;;;1.30;;
12878;SDS011;20617;49.476;10.986;2023-02-26T05:38:42;4.53;;;1.35;;
12878;SDS011;20617;49.476;10.986;2023-02-26T05:40:47;1.27;;;1.02;;
12878;SDS011;20617;49.476;10.986;2023-02-26T05:42:52;2.92;;;1.10;;
12878;SDS011;20617;49.476;10.986;2023-02-26T05:45:03;3.03;;;1.13;;
12878;SDS011;20617;49.476;10.986;2023-02-26T05:47:09;2.20;;;1.05;;
12878;SDS011;20617;49.476;10.986;2023-02-26T05:49:14;3.22;;;1.30;;
12878;SDS011;20617;49.476;10.986;2023-02-26T05:51:19;5.95;;;1.30;;
12878;SDS011;20617;49.476;10.986;2023-02-26T05:53:24;5.45;;;3.33;;
12878;SDS011;20617;49.476;10.986;2023-02-26T05:55:28;15.45;;;7.90;;
12878;SDS011;20617;49.476;10.986;2023-02-26T05:57:33;24.13;;;12.82;;
12878;SDS011;20617;49.476;10.986;2023-02-26T05:59:38;48.08;;;23.95;;
12878;SDS011;20617;49.476;10.986;2023-02-26T06:01:46;36.70;;;19.13;;
12878;SDS011;20617;49.476;10.986;2023-02-26T06:03:51;13.20;;;7.55;;
12878;SDS011;20617;49.476;10.986;2023-02-26T06:05:56;15.32;;;9.98;;
12878;SDS011;20617;49.476;10.986;2023-02-26T06:08:01;11.50;;;3.67;;
12878;SDS011;20617;49.476;10.986;2023-02-26T06:10:06;8.55;;;4.10;;
12878;SDS011;20617;49.476;10.986;2023-02-26T06:12:12;8.15;;;2.90;;
12878;SDS011;20617;49.476;10.986;2023-02-26T06:14:17;9.75;;;5.15;;
12878;SDS011;20617;49.476;10.986;2023-02-26T06:16:22;6.68;;;2.60;;
12878;SDS011;20617;49.476;10.986;2023-02-26T06:18:30;9.15;;;3.40;;
12878;SDS011;20617;49.476;10.986;2023-02-26T06:20:35;4.32;;;2.63;;
12878;SDS011;20617;49.476;10.986;2023-02-26T06:22:40;5.43;;;2.28;;
12878;SDS011;20617;49.476;10.986;2023-02-26T06:24:45;6.95;;;1.75;;
12878;SDS011;20617;49.476;10.986;2023-02-26T06:28:57;2.92;;;1.42;;
12878;SDS011;20617;49.476;10.986;2023-02-26T06:31:03;4.72;;;1.83;;
12878;SDS011;20617;49.476;10.986;2023-02-26T06:35:15;4.00;;;1.90;;
12878;SDS011;20617;49.476;10.986;2023-02-26T06:37:20;7.40;;;1.50;;
12878;SDS011;20617;49.476;10.986;2023-02-26T06:39:25;2.78;;;1.35;;
12878;SDS011;20617;49.476;10.986;2023-02-26T06:41:29;5.53;;;1.90;;
12878;SDS011;20617;49.476;10.986;2023-02-26T06:43:34;3.50;;;1.70;;
12878;SDS011;20617;49.476;10.986;2023-02-26T06:45:39;4.22;;;1.63;;
12878;SDS011;20617;49.476;10.986;2023-02-26T06:47:44;5.20;;;1.92;;
12878;SDS011;20617;49.476;10.986;2023-02-26T06:49:49;3.38;;;1.80;;
12878;SDS011;20617;49.476;10.986;2023-02-26T06:51:59;3.88;;;1.50;;
12878;SDS011;20617;49.476;10.986;2023-02-26T06:54:04;5.30;;;1.52;;
12878;SDS011;20617;49.476;10.986;2023-02-26T06:56:09;6.55;;;1.40;;
12878;SDS011;20617;49.476;10.986;2023-02-26T07:00:19;4.38;;;1.73;;
12878;SDS011;20617;49.476;10.986;2023-02-26T07:02:25;5.70;;;1.42;;
12878;SDS011;20617;49.476;10.986;2023-02-26T07:06:35;3.53;;;1.55;;
12878;SDS011;20617;49.476;10.986;2023-02-26T07:08:42;3.88;;;1.20;;
12878;SDS011;20617;49.476;10.986;2023-02-26T07:10:49;5.25;;;1.92;;
12878;SDS011;20617;49.476;10.986;2023-02-26T07:12:56;2.88;;;1.30;;
12878;SDS011;20617;49.476;10.986;2023-02-26T07:15:01;4.82;;;1.65;;
12878;SDS011;20617;49.476;10.986;2023-02-26T07:17:05;3.42;;;1.52;;
12878;SDS011;20617;49.476;10.986;2023-02-26T07:19:10;3.53;;;1.33;;
12878;SDS011;20617;49.476;10.986;2023-02-26T07:21:15;5.05;;;1.85;;
12878;SDS011;20617;49.476;10.986;2023-02-26T07:23:20;3.90;;;1.77;;
12878;SDS011;20617;49.476;10.986;2023-02-26T07:25:27;4.60;;;1.85;;
12878;SDS011;20617;49.476;10.986;2023-02-26T07:27:32;2.90;;;1.67;;
12878;SDS011;20617;49.476;10.986;2023-02-26T07:29:37;2.28;;;1.27;;
12878;SDS011;20617;49.476;10.986;2023-02-26T07:31:42;9.98;;;6.00;;
12878;SDS011;20617;49.476;10.986;2023-02-26T07:33:47;3.13;;;1.77;;
12878;SDS011;20617;49.476;10.986;2023-02-26T07:35:52;6.20;;;2.47;;
12878;SDS011;20617;49.476;10.986;2023-02-26T07:37:58;4.05;;;1.90;;
12878;SDS011;20617;49.476;10.986;2023-02-26T07:40:03;6.80;;;3.70;;
12878;SDS011;20617;49.476;10.986;2023-02-26T07:42:11;5.28;;;2.00;;
12878;SDS011;20617;49.476;10.986;2023-02-26T07:44:16;5.22;;;1.85;;
12878;SDS011;20617;49.476;10.986;2023-02-26T07:46:21;2.63;;;1.45;;
12878;SDS011;20617;49.476;10.986;2023-02-26T07:48:26;2.67;;;1.20;;
12878;SDS011;20617;49.476;10.986;2023-02-26T07:50:31;6.13;;;3.53;;
12878;SDS011;20617;49.476;10.986;2023-02-26T07:54:41;5.53;;;2.33;;
12878;SDS011;20617;49.476;10.986;2023-02-26T07:56:46;6.28;;;1.85;;
12878;SDS011;20617;49.476;10.986;2023-02-26T08:01:00;5.80;;;3.38;;
12878;SDS011;20617;49.476;10.986;2023-02-26T08:03:05;5.45;;;2.33;;
12878;SDS011;20617;49.476;10.986;2023-02-26T08:05:10;5.70;;;2.58;;
12878;SDS011;20617;49.476;10.986;2023-02-26T08:07:15;2.50;;;1.75;;
12878;SDS011;20617;49.476;10.986;2023-02-26T08:09:20;9.57;;;5.30;;
12878;SDS011;20617;49.476;10.986;2023-02-26T08:11:26;3.92;;;2.30;;
12878;SDS011;20617;49.476;10.986;2023-02-26T08:13:33;7.25;;;4.45;;
12878;SDS011;20617;49.476;10.986;2023-02-26T08:15:40;6.47;;;3.22;;
12878;SDS011;20617;49.476;10.986;2023-02-26T08:17:45;6.10;;;2.05;;
12878;SDS011;20617;49.476;10.986;2023-02-26T08:19:50;4.25;;;2.33;;
12878;SDS011;20617;49.476;10.986;2023-02-26T08:21:55;3.78;;;2.17;;
12878;SDS011;20617;49.476;10.986;2023-02-26T08:24:00;5.10;;;2.42;;
12878;SDS011;20617;49.476;10.986;2023-02-26T08:26:05;6.78;;;2.53;;
12878;SDS011;20617;49.476;10.986;2023-02-26T08:28:11;3.75;;;2.10;;
12878;SDS011;20617;49.476;10.986;2023-02-26T08:32:23;3.97;;;1.83;;
12878;SDS011;20617;49.476;10.986;2023-02-26T08:34:29;4.95;;;2.30;;
12878;SDS011;20617;49.476;10.986;2023-02-26T08:36:34;3.63;;;1.92;;
12878;SDS011;20617;49.476;10.986;2023-02-26T08:38:39;4.10;;;1.98;;
12878;SDS011;20617;49.476;10.986;2023-02-26T08:40:44;2.63;;;1.50;;
12878;SDS011;20617;49.476;10.986;2023-02-26T08:42:53;3.58;;;1.50;;
12878;SDS011;20617;49.476;10.986;2023-02-26T08:45:00;4.68;;;2.10;;
12878;SDS011;20617;49.476;10.986;2023-02-26T08:47:08;2.97;;;1.67;;
12878;SDS011;20617;49.476;10.986;2023-02-26T08:49:32;2.45;;;1.83;;
12878;SDS011;20617;49.476;10.986;2023-02-26T08:52:23;3.70;;;1.83;;
12878;SDS011;20617;49.476;10.986;2023-02-26T08:54:18;4.68;;;1.80;;
12878;SDS011;20617;49.476;10.986;2023-02-26T08:56:23;4.43;;;1.95;;
12878;SDS011;20617;49.476;10.986;2023-02-26T08:58:28;3.78;;;2.40;;
12878;SDS011;20617;49.476;10.986;2023-02-26T09:00:35;4.22;;;2.17;;
12878;SDS011;20617;49.476;10.986;2023-02-26T09:02:41;4.05;;;2.00;;
12878;SDS011;20617;49.476;10.986;2023-02-26T09:04:49;1.90;;;1.35;;
12878;SDS011;20617;49.476;10.986;2023-02-26T09:06:55;6.32;;;3.45;;
12878;SDS011;20617;49.476;10.986;2023-02-26T09:09:00;22.98;;;10.52;;
12878;SDS011;20617;49.476;10.986;2023-02-26T09:11:06;13.70;;;6.25;;
12878;SDS011;20617;49.476;10.986;2023-02-26T09:13:12;17.92;;;7.80;;
12878;SDS011;20617;49.476;10.986;2023-02-26T09:15:18;14.63;;;6.95;;
12878;SDS011;20617;49.476;10.986;2023-02-26T09:19:29;15.70;;;7.00;;
12878;SDS011;20617;49.476;10.986;2023-02-26T09:21:36;10.15;;;5.22;;
12878;SDS011;20617;49.476;10.986;2023-02-26T09:23:43;5.55;;;2.85;;
12878;SDS011;20617;49.476;10.986;2023-02-26T09:25:54;6.85;;;4.15;;
12878;SDS011;20617;49.476;10.986;2023-02-26T09:28:00;4.15;;;2.17;;
12878;SDS011;20617;49.476;10.986;2023-02-26T09:30:05;3.10;;;2.10;;
12878;SDS011;20617;49.476;10.986;2023-02-26T09:32:11;3.03;;;1.48;;
12878;SDS011;20617;49.476;10.986;2023-02-26T09:34:20;1.52;;;1.10;;
12878;SDS011;20617;49.476;10.986;2023-02-26T09:36:28;2.63;;;1.50;;
12878;SDS011;20617;49.476;10.986;2023-02-26T09:38:37;1.65;;;1.38;;
12878;SDS011;20617;49.476;10.986;2023-02-26T09:40:45;3.08;;;1.23;;
12878;SDS011;20617;49.476;10.986;2023-02-26T09:43:01;2.60;;;1.60;;
12878;SDS011;20617;49.476;10.986;2023-02-26T09:45:23;3.25;;;1.20;;
12878;SDS011;20617;49.476;10.986;2023-02-26T09:47:34;0.85;;;0.80;;
12878;SDS011;20617;49.476;10.986;2023-02-26T09:49:46;1.52;;;0.80;;
12878;SDS011;20617;49.476;10.986;2023-02-26T09:51:57;1.80;;;1.00;;
12878;SDS011;20617;49.476;10.986;2023-02-26T09:54:12;0.77;;;0.70;;
12878;SDS011;20617;49.476;10.986;2023-02-26T09:56:20;1.63;;;0.90;;
12878;SDS011;20617;49.476;10.986;2023-02-26T09:58:31;2.15;;;0.98;;
12878;SDS011;20617;49.476;10.986;2023-02-26T10:00:40;1.58;;;1.00;;
12878;SDS011;20617;49.476;10.986;2023-02-26T10:02:54;1.67;;;0.70;;
12878;SDS011;20617;49.476;10.986;2023-02-26T10:05:11;0.73;;;0.50;;
12878;SDS011;20617;49.476;10.986;2023-02-26T10:07:25;2.05;;;1.10;;
12878;SDS011;20617;49.476;10.986;2023-02-26T10:09:50;0.80;;;0.80;;
12878;SDS011;20617;49.476;10.986;2023-02-26T10:12:04;0.65;;;0.60;;
12878;SDS011;20617;49.476;10.986;2023-02-26T10:14:15;1.67;;;0.80;;
12878;SDS011;20617;49.476;10.986;2023-02-26T10:16:26;1.55;;;1.02;;
12878;SDS011;20617;49.476;10.986;2023-02-26T10:18:35;1.98;;;0.93;;
12878;SDS011;20617;49.476;10.986;2023-02-26T10:20:47;1.15;;;0.60;;
12878;SDS011;20617;49.476;10.986;2023-02-26T10:22:59;1.23;;;0.90;;
12878;SDS011;20617;49.476;10.986;2023-02-26T10:25:11;1.13;;;0.80;;
12878;SDS011;20617;49.476;10.986;2023-02-26T10:27:21;0.50;;;0.43;;
12878;SDS011;20617;49.476;10.986;2023-02-26T10:29:35;0.60;;;0.60;;
12878;SDS011;20617;49.476;10.986;2023-02-26T10:31:48;1.20;;;0.88;;
12878;SDS011;20617;49.476;10.986;2023-02-26T10:34:06;1.83;;;0.85;;
12878;SDS011;20617;49.476;10.986;2023-02-26T10:36:21;1.58;;;1.08;;
12878;SDS011;20617;49.476;10.986;2023-02-26T10:38:29;1.95;;;1.30;;
12878;SDS011;20617;49.476;10.986;2023-02-26T10:40:38;0.50;;;0.50;;
12878;SDS011;20617;49.476;10.986;2023-02-26T10:42:49;1.73;;;1.38;;
12878;SDS011;20617;49.476;10.986;2023-02-26T10:45:01;2.92;;;1.17;;
12878;SDS011;20617;49.476;10.986;2023-02-26T10:47:16;2.85;;;1.17;;
12878;SDS011;20617;49.476;10.986;2023-02-26T10:49:46;2.35;;;0.70;;
12878;SDS011;20617;49.476;10.986;2023-02-26T10:51:55;1.58;;;0.93;;
12878;SDS011;20617;49.476;10.986;2023-02-26T10:54:10;0.95;;;0.73;;
12878;SDS011;20617;49.476;10.986;2023-02-26T10:56:22;1.13;;;0.68;;
12878;SDS011;20617;49.476;10.986;2023-02-26T10:58:30;0.70;;;0.70;;
12878;SDS011;20617;49.476;10.986;2023-02-26T11:02:40;0.90;;;0.80;;
12878;SDS011;20617;49.476;10.986;2023-02-26T11:04:47;2.13;;;0.80;;
12878;SDS011;20617;49.476;10.986;2023-02-26T11:07:07;1.83;;;0.90;;
12878;SDS011;20617;49.476;10.986;2023-02-26T11:09:17;1.35;;;0.82;;
12878;SDS011;20617;49.476;10.986;2023-02-26T11:11:38;1.83;;;1.00;;
12878;SDS011;20617;49.476;10.986;2023-02-26T11:13:46;4.65;;;1.73;;
12878;SDS011;20617;49.476;10.986;2023-02-26T11:15:51;2.00;;;1.00;;
12878;SDS011;20617;49.476;10.986;2023-02-26T11:17:58;2.03;;;1.08;;
12878;SDS011;20617;49.476;10.986;2023-02-26T11:20:16;2.33;;;0.80;;
12878;SDS011;20617;49.476;10.986;2023-02-26T11:22:26;1.67;;;0.80;;
12878;SDS011;20617;49.476;10.986;2023-02-26T11:24:35;2.47;;;1.02;;
12878;SDS011;20617;49.476;10.986;2023-02-26T11:26:45;3.88;;;1.20;;
12878;SDS011;20617;49.476;10.986;2023-02-26T11:28:52;2.88;;;1.20;;
12878;SDS011;20617;49.476;10.986;2023-02-26T11:31:04;2.83;;;1.50;;
12878;SDS011;20617;49.476;10.986;2023-02-26T11:33:14;4.45;;;1.70;;
12878;SDS011;20617;49.476;10.986;2023-02-26T11:35:22;1.95;;;0.88;;
12878;SDS011;20617;49.476;10.986;2023-02-26T11:37:29;11.65;;;4.35;;
12878;SDS011;20617;49.476;10.986;2023-02-26T11:39:38;6.15;;;3.45;;
12878;SDS011;20617;49.476;10.986;2023-02-26T11:41:46;3.33;;;1.70;;
12878;SDS011;20617;49.476;10.986;2023-02-26T11:43:57;4.05;;;1.85;;
12878;SDS011;20617;49.476;10.986;2023-02-26T11:46:04;1.70;;;1.27;;
12878;SDS011;20617;49.476;10.986;2023-02-26T11:50:17;4.68;;;2.25;;
12878;SDS011;20617;49.476;10.986;2023-02-26T11:52:27;1.17;;;0.80;;
12878;SDS011;20617;49.476;10.986;2023-02-26T11:54:36;1.42;;;0.80;;
12878;SDS011;20617;49.476;10.986;2023-02-26T11:56:42;1.83;;;1.05;;
12878;SDS011;20617;49.476;10.986;2023-02-26T11:58:50;3.60;;;1.50;;
12878;SDS011;20617;49.476;10.986;2023-02-26T12:00:57;5.32;;;2.15;;
12878;SDS011;20617;49.476;10.986;2023-02-26T12:03:03;1.00;;;0.90;;
12878;SDS011;20617;49.476;10.986;2023-02-26T12:05:11;1.83;;;0.93;;
12878;SDS011;20617;49.476;10.986;2023-02-26T12:07:20;2.20;;;0.93;;
12878;SDS011;20617;49.476;10.986;2023-02-26T12:09:25;1.73;;;0.77;;
12878;SDS011;20617;49.476;10.986;2023-02-26T12:11:36;2.13;;;0.70;;
12878;SDS011;20617;49.476;10.986;2023-02-26T12:13:59;2.85;;;0.98;;
12878;SDS011;20617;49.476;10.986;2023-02-26T12:16:16;1.85;;;0.93;;
12878;SDS011;20617;49.476;10.986;2023-02-26T12:18:31;2.70;;;0.75;;
12878;SDS011;20617;49.476;10.986;2023-02-26T12:20:46;0.65;;;0.60;;
12878;SDS011;20617;49.476;10.986;2023-02-26T12:23:05;1.23;;;0.75;;
12878;SDS011;20617;49.476;10.986;2023-02-26T12:25:36;3.42;;;0.90;;
12878;SDS011;20617;49.476;10.986;2023-02-26T12:27:55;2.15;;;1.00;;
12878;SDS011;20617;49.476;10.986;2023-02-26T12:30:23;2.22;;;0.90;;
12878;SDS011;20617;49.476;10.986;2023-02-26T12:32:47;1.25;;;0.90;;
12878;SDS011;20617;49.476;10.986;2023-02-26T12:35:10;1.45;;;0.75;;
12878;SDS011;20617;49.476;10.986;2023-02-26T12:37:42;1.58;;;0.80;;
12878;SDS011;20617;49.476;10.986;2023-02-26T12:40:02;1.48;;;0.70;;
12878;SDS011;20617;49.476;10.986;2023-02-26T12:42:17;1.70;;;0.63;;
12878;SDS011;20617;49.476;10.986;2023-02-26T12:44:51;1.98;;;1.15;;
12878;SDS011;20617;49.476;10.986;2023-02-26T12:47:17;1.45;;;0.80;;
12878;SDS011;20617;49.476;10.986;2023-02-26T12:49:37;1.47;;;0.70;;
12878;SDS011;20617;49.476;10.986;2023-02-26T12:54:34;0.80;;;0.80;;
12878;SDS011;20617;49.476;10.986;2023-02-26T12:56:58;1.77;;;0.82;;
12878;SDS011;20617;49.476;10.986;2023-02-26T12:59:30;1.15;;;0.80;;
12878;SDS011;20617;49.476;10.986;2023-02-26T13:02:00;0.70;;;0.70;;
12878;SDS011;20617;49.476;10.986;2023-02-26T13:04:26;1.40;;;1.02;;
12878;SDS011;20617;49.476;10.986;2023-02-26T13:07:05;4.65;;;3.35;;
12878;SDS011;20617;49.476;10.986;2023-02-26T13:09:31;13.50;;;8.80;;
12878;SDS011;20617;49.476;10.986;2023-02-26T13:11:45;5.05;;;2.95;;
12878;SDS011;20617;49.476;10.986;2023-02-26T13:14:02;4.82;;;3.72;;
12878;SDS011;20617;49.476;10.986;2023-02-26T13:16:18;2.63;;;2.10;;
12878;SDS011;20617;49.476;10.986;2023-02-26T13:18:37;4.15;;;2.42;;
12878;SDS011;20617;49.476;10.986;2023-02-26T13:20:53;3.97;;;2.63;;
12878;SDS011;20617;49.476;10.986;2023-02-26T13:23:02;6.10;;;2.80;;
12878;SDS011;20617;49.476;10.986;2023-02-26T13:25:14;4.18;;;1.95;;
12878;SDS011;20617;49.476;10.986;2023-02-26T13:27:27;1.98;;;0.90;;
12878;SDS011;20617;49.476;10.986;2023-02-26T13:29:36;3.67;;;1.90;;
12878;SDS011;20617;49.476;10.986;2023-02-26T13:31:49;9.48;;;2.65;;
12878;SDS011;20617;49.476;10.986;2023-02-26T13:34:00;2.78;;;1.00;;
12878;SDS011;20617;49.476;10.986;2023-02-26T13:36:12;2.25;;;1.08;;